createdAt,value
2018-09-08T00:01:35.896Z,4.15
2018-09-08T00:04:04.067Z,3.50
2018-09-08T00:06:33.104Z,3.50
2018-09-08T00:09:01.559Z,3.05
2018-09-08T00:11:29.733Z,3.30
2018-09-08T00:13:58.002Z,3.35
2018-09-08T00:16:31.662Z,2.05
2018-09-08T00:19:05.189Z,2.42
2018-09-08T00:21:38.764Z,2.27
2018-09-08T00:24:12.257Z,2.33
2018-09-08T00:26:39.691Z,2.02
2018-09-08T00:29:15.986Z,2.10
2018-09-08T00:31:44.189Z,2.27
2018-09-08T00:34:12.368Z,2.00
2018-09-08T00:36:40.659Z,1.70
2018-09-08T00:39:09.475Z,1.62
2018-09-08T00:41:37.802Z,1.85
2018-09-08T00:44:06.068Z,2.02
2018-09-08T00:46:34.240Z,2.05
2018-09-08T00:49:02.416Z,1.65
2018-09-08T00:51:30.660Z,1.85
2018-09-08T00:53:59.127Z,1.75
2018-09-08T00:56:27.328Z,1.65
2018-09-08T00:59:00.819Z,1.62
2018-09-08T01:01:28.972Z,1.57
2018-09-08T01:03:57.134Z,1.80
2018-09-08T01:06:25.285Z,1.80
2018-09-08T01:08:53.448Z,1.45
2018-09-08T01:11:21.714Z,1.40
2018-09-08T01:13:49.983Z,1.40
2018-09-08T01:16:18.940Z,1.60
2018-09-08T01:18:47.159Z,1.52
2018-09-08T01:21:15.329Z,1.27
2018-09-08T01:23:46.955Z,1.50
2018-09-08T01:26:15.636Z,1.65
2018-09-08T01:28:43.800Z,1.52
2018-09-08T01:31:12.015Z,1.80
2018-09-08T01:33:40.287Z,1.40
2018-09-08T01:36:08.465Z,1.10
2018-09-08T01:38:36.698Z,2.60
2018-09-08T01:41:04.815Z,1.50
2018-09-08T01:43:32.948Z,1.35
2018-09-08T01:46:01.168Z,1.75
2018-09-08T01:48:29.477Z,1.70
2018-09-08T01:50:57.671Z,1.85
2018-09-08T01:53:25.816Z,2.05
2018-09-08T01:55:54.015Z,1.55
2018-09-08T01:58:22.430Z,2.00
2018-09-08T02:00:50.590Z,1.90
2018-09-08T02:03:18.795Z,2.12
2018-09-08T02:05:46.938Z,2.12
2018-09-08T02:08:15.201Z,1.65
2018-09-08T02:10:43.430Z,2.12
2018-09-08T02:13:12.018Z,2.12
2018-09-08T02:15:40.233Z,2.10
2018-09-08T02:18:08.468Z,2.67
2018-09-08T02:20:36.682Z,1.70
2018-09-08T02:23:04.869Z,2.10
2018-09-08T02:25:33.389Z,2.00
2018-09-08T02:28:01.530Z,1.90
2018-09-08T02:30:29.736Z,1.77
2018-09-08T02:32:57.932Z,1.75
2018-09-08T02:35:26.313Z,1.70
2018-09-08T02:37:54.492Z,1.90
2018-09-08T02:40:22.696Z,1.77
2018-09-08T02:42:50.873Z,1.57
2018-09-08T02:45:19.060Z,2.02
2018-09-08T02:47:47.215Z,2.00
2018-09-08T02:50:36.941Z,1.90
2018-09-08T02:53:04.824Z,1.90
2018-09-08T02:55:32.752Z,1.70
2018-09-08T02:58:00.187Z,1.70
2018-09-08T03:00:27.922Z,1.80
2018-09-08T03:02:55.148Z,2.27
2018-09-08T03:05:22.603Z,2.58
2018-09-08T03:07:49.957Z,2.30
2018-09-08T03:10:17.604Z,2.62
2018-09-08T03:12:44.800Z,2.65
2018-09-08T03:15:11.975Z,2.65
2018-09-08T03:17:39.203Z,2.52
2018-09-08T03:20:06.410Z,2.37
2018-09-08T03:22:33.646Z,2.77
2018-09-08T03:25:00.861Z,2.77
2018-09-08T03:27:28.111Z,2.70
2018-09-08T03:29:55.313Z,3.15
2018-09-08T03:32:22.540Z,2.37
2018-09-08T03:34:49.763Z,3.35
2018-09-08T03:37:16.938Z,3.08
2018-09-08T03:39:44.200Z,3.20
2018-09-08T03:42:11.424Z,2.70
2018-09-08T03:44:38.616Z,3.30
2018-09-08T03:47:05.819Z,3.83
2018-09-08T03:49:33.017Z,3.55
2018-09-08T03:52:00.230Z,3.25
2018-09-08T03:54:27.424Z,3.20
2018-09-08T03:56:54.619Z,3.50
2018-09-08T03:59:21.827Z,4.08
2018-09-08T04:01:49.061Z,4.40
2018-09-08T04:04:17.242Z,3.70
2018-09-08T04:06:45.420Z,3.90
2018-09-08T04:09:13.568Z,3.95
2018-09-08T04:11:41.775Z,4.50
2018-09-08T04:14:10.060Z,3.90
2018-09-08T04:16:38.293Z,4.83
2018-09-08T04:19:06.821Z,4.20
2018-09-08T04:21:35.032Z,3.55
2018-09-08T04:24:03.312Z,4.92
2018-09-08T04:26:31.702Z,4.05
2018-09-08T04:28:59.903Z,4.35
2018-09-08T04:31:28.082Z,4.05
2018-09-08T04:33:56.322Z,3.60
2018-09-08T04:36:24.436Z,4.97
2018-09-08T04:38:52.605Z,4.03
2018-09-08T04:41:20.876Z,4.70
2018-09-08T04:43:49.027Z,4.83
2018-09-08T04:46:17.145Z,4.15
2018-09-08T04:48:45.280Z,5.08
2018-09-08T04:51:13.524Z,4.80
2018-09-08T04:53:41.664Z,4.42
2018-09-08T04:56:09.836Z,4.60
2018-09-08T04:58:38.012Z,5.30
2018-09-08T05:01:06.473Z,5.03
2018-09-08T05:03:34.647Z,5.30
2018-09-08T05:06:02.869Z,5.00
2018-09-08T05:08:31.016Z,5.00
2018-09-08T05:10:59.179Z,4.80
2018-09-08T05:13:27.334Z,5.40
2018-09-08T05:15:55.518Z,5.80
2018-09-08T05:18:23.830Z,5.78
2018-09-08T05:20:52.022Z,5.47
2018-09-08T05:23:20.211Z,6.37
2018-09-08T05:25:48.369Z,5.75
2018-09-08T05:28:16.508Z,5.78
2018-09-08T05:30:44.699Z,5.37
2018-09-08T05:33:12.930Z,5.67
2018-09-08T05:35:41.174Z,4.83
2018-09-08T05:38:09.363Z,5.00
2018-09-08T05:40:37.710Z,6.92
2018-09-08T05:43:05.992Z,5.70
2018-09-08T05:45:34.103Z,5.90
2018-09-08T05:48:02.512Z,6.00
2018-09-08T05:50:31.912Z,6.20
2018-09-08T05:53:00.122Z,7.10
2018-09-08T05:55:28.260Z,7.30
2018-09-08T05:57:56.456Z,6.72
2018-09-08T06:00:24.726Z,7.53
2018-09-08T06:02:53.161Z,5.15
2018-09-08T06:05:21.364Z,6.45
2018-09-08T06:07:49.902Z,6.17
2018-09-08T06:10:18.121Z,5.87
2018-09-08T06:12:46.299Z,6.00
2018-09-08T06:15:14.440Z,5.87
2018-09-08T06:17:43.839Z,5.80
2018-09-08T06:20:12.095Z,5.42
2018-09-08T06:22:40.396Z,6.75
2018-09-08T06:25:08.776Z,5.70
2018-09-08T06:27:37.834Z,5.85
2018-09-08T06:30:05.970Z,5.75
2018-09-08T06:32:34.112Z,6.20
2018-09-08T06:35:02.418Z,5.58
2018-09-08T06:37:30.592Z,5.97
2018-09-08T06:39:58.736Z,6.20
2018-09-08T06:42:26.936Z,6.78
2018-09-08T06:44:55.132Z,5.45
2018-09-08T06:47:23.338Z,6.08
2018-09-08T06:49:51.448Z,5.60
2018-09-08T06:52:19.754Z,6.95
2018-09-08T06:54:47.888Z,6.70
2018-09-08T06:57:16.112Z,5.55
2018-09-08T06:59:44.352Z,5.87
2018-09-08T07:02:12.507Z,5.97
2018-09-08T07:04:40.723Z,6.70
2018-09-08T07:07:12.246Z,6.40
2018-09-08T07:09:41.084Z,5.90
2018-09-08T07:12:09.543Z,6.20
2018-09-08T07:14:37.688Z,7.22
2018-09-08T07:17:06.076Z,5.40
2018-09-08T07:19:34.296Z,5.55
2018-09-08T07:22:02.454Z,5.87
2018-09-08T07:24:30.688Z,5.30
2018-09-08T07:26:58.998Z,6.20
2018-09-08T07:29:27.190Z,5.97
2018-09-08T07:32:05.178Z,6.17
2018-09-08T07:34:33.756Z,4.70
2018-09-08T07:37:02.125Z,6.03
2018-09-08T07:39:31.290Z,6.00
2018-09-08T07:41:59.879Z,6.03
2018-09-08T07:44:28.214Z,5.33
2018-09-08T07:46:56.586Z,5.62
2018-09-08T07:49:25.065Z,4.80
2018-09-08T07:51:53.465Z,5.92
2018-09-08T07:54:21.680Z,6.87
2018-09-08T07:56:52.659Z,5.33
2018-09-08T07:59:33.019Z,5.28
2018-09-08T08:02:01.559Z,4.55
2018-09-08T08:04:30.035Z,5.55
2018-09-08T08:06:58.294Z,6.60
2018-09-08T08:09:26.846Z,9.60
2018-09-08T08:11:55.200Z,4.80
2018-09-08T08:14:23.787Z,5.25
2018-09-08T08:16:52.994Z,5.45
2018-09-08T08:19:22.184Z,4.95
2018-09-08T08:21:51.151Z,5.10
2018-09-08T08:24:20.300Z,5.20
2018-09-08T08:26:49.564Z,4.10
2018-09-08T08:29:17.848Z,4.03
2018-09-08T08:31:46.288Z,4.22
2018-09-08T08:34:14.690Z,4.97
2018-09-08T08:36:43.339Z,4.53
2018-09-08T08:39:11.790Z,4.17
2018-09-08T08:41:40.410Z,4.50
2018-09-08T08:44:08.582Z,4.80
2018-09-08T08:46:36.809Z,4.80
2018-09-08T08:49:05.025Z,4.47
2018-09-08T08:51:44.559Z,4.53
2018-09-08T08:54:18.273Z,5.30
2018-09-08T08:56:47.253Z,5.08
2018-09-08T08:59:15.728Z,5.30
2018-09-08T09:01:45.137Z,5.10
2018-09-08T09:04:13.332Z,4.60
2018-09-08T09:06:41.688Z,5.50
2018-09-08T09:09:13.335Z,5.07
2018-09-08T09:11:41.617Z,4.53
2018-09-08T09:14:10.334Z,4.80
2018-09-08T09:16:38.565Z,4.30
2018-09-08T09:19:32.752Z,5.67
2018-09-08T09:22:12.473Z,4.10
2018-09-08T09:24:49.760Z,5.40
2018-09-08T09:27:17.485Z,5.30
2018-09-08T09:29:45.697Z,4.80
2018-09-08T09:32:13.943Z,4.33
2018-09-08T09:34:42.221Z,4.10
2018-09-08T09:37:10.638Z,4.60
2018-09-08T09:39:39.056Z,4.33
2018-09-08T09:42:08.340Z,3.80
2018-09-08T09:44:36.608Z,4.73
2018-09-08T09:47:04.825Z,4.07
2018-09-08T09:49:33.092Z,3.90
2018-09-08T09:52:01.308Z,4.30
2018-09-08T09:54:30.615Z,3.93
2018-09-08T09:56:58.948Z,4.30
2018-09-08T09:59:27.221Z,4.07
2018-09-08T10:02:00.726Z,3.73
2018-09-08T10:04:29.058Z,4.40
2018-09-08T10:06:57.499Z,4.00
2018-09-08T10:09:26.646Z,4.17
2018-09-08T10:11:54.997Z,3.17
2018-09-08T10:14:23.165Z,4.17
2018-09-08T10:16:51.652Z,3.77
2018-09-08T10:19:19.949Z,3.87
2018-09-08T10:21:48.150Z,2.80
2018-09-08T10:24:16.338Z,2.53
2018-09-08T10:26:44.576Z,2.60
2018-09-08T10:29:12.785Z,2.70
2018-09-08T10:31:40.985Z,2.70
2018-09-08T10:34:09.179Z,2.90
2018-09-08T10:36:37.741Z,2.17
2018-09-08T10:39:06.617Z,2.47
2018-09-08T10:41:34.859Z,3.10
2018-09-08T10:44:03.038Z,2.10
2018-09-08T10:46:31.229Z,2.53
2018-09-08T10:48:59.377Z,2.40
2018-09-08T10:51:46.420Z,2.90
2018-09-08T10:54:14.921Z,1.80
2018-09-08T10:56:43.909Z,1.40
2018-09-08T10:59:12.327Z,1.83
2018-09-08T11:01:40.847Z,1.90
2018-09-08T11:04:08.914Z,2.03
2018-09-08T11:06:37.078Z,2.47
2018-09-08T11:09:06.152Z,2.23
2018-09-08T11:11:34.907Z,2.40
2018-09-08T11:14:03.104Z,2.47
2018-09-08T11:16:31.351Z,2.30
2018-09-08T11:18:59.749Z,2.10
2018-09-08T11:21:27.983Z,1.93
2018-09-08T11:23:56.194Z,2.20
2018-09-08T11:26:24.340Z,1.70
2018-09-08T11:28:52.696Z,1.90
2018-09-08T11:31:20.855Z,1.43
2018-09-08T11:33:49.031Z,2.00
2018-09-08T11:36:17.217Z,2.70
2018-09-08T11:38:45.375Z,1.80
2018-09-08T11:41:13.570Z,2.03
2018-09-08T11:43:41.701Z,2.40
2018-09-08T11:46:09.853Z,2.23
2018-09-08T11:48:38.081Z,2.30
2018-09-08T11:51:06.256Z,2.00
2018-09-08T11:53:34.472Z,2.57
2018-09-08T11:56:02.791Z,1.77
2018-09-08T11:58:30.983Z,2.67
2018-09-08T12:00:59.169Z,2.50
2018-09-08T12:03:27.320Z,2.50
2018-09-08T12:05:55.532Z,2.00
2018-09-08T12:08:24.396Z,2.40
2018-09-08T12:10:52.529Z,1.87
2018-09-08T12:13:20.697Z,2.27
2018-09-08T12:15:48.855Z,2.53
2018-09-08T12:18:18.300Z,2.43
2018-09-08T12:20:46.469Z,2.00
2018-09-08T12:23:14.722Z,1.90
2018-09-08T12:25:42.896Z,1.40
2018-09-08T12:28:11.073Z,1.70
2018-09-08T12:30:39.682Z,1.77
2018-09-08T12:33:07.908Z,2.20
2018-09-08T12:35:36.060Z,1.60
2018-09-08T12:38:04.311Z,1.90
2018-09-08T12:40:32.513Z,1.80
2018-09-08T12:43:00.683Z,2.10
2018-09-08T12:45:28.815Z,1.83
2018-09-08T12:47:57.038Z,1.53
2018-09-08T12:50:25.180Z,1.30
2018-09-08T12:52:53.393Z,1.27
2018-09-08T12:55:21.566Z,1.67
2018-09-08T12:57:49.816Z,2.07
2018-09-08T13:00:18.037Z,1.67
2018-09-08T13:02:46.233Z,1.80
2018-09-08T13:05:14.417Z,1.10
2018-09-08T13:07:42.664Z,1.33
2018-09-08T13:10:10.841Z,1.30
2018-09-08T13:12:39.798Z,1.50
2018-09-08T13:15:08.411Z,1.43
2018-09-08T13:17:36.629Z,1.17
2018-09-08T13:20:04.831Z,0.70
2018-09-08T13:22:33.009Z,1.60
2018-09-08T13:25:01.566Z,1.30
2018-09-08T13:27:29.801Z,1.10
2018-09-08T13:29:58.151Z,1.50
2018-09-08T13:32:26.344Z,1.30
2018-09-08T13:34:54.878Z,1.20
2018-09-08T13:37:23.049Z,1.50
2018-09-08T13:39:51.494Z,1.63
2018-09-08T13:42:19.716Z,1.33
2018-09-08T13:44:48.541Z,2.23
2018-09-08T13:47:16.790Z,1.70
2018-09-08T13:49:45.000Z,2.27
2018-09-08T13:52:13.198Z,1.70
2018-09-08T13:54:41.356Z,1.90
2018-09-08T13:57:09.688Z,1.83
2018-09-08T13:59:37.885Z,1.57
2018-09-08T14:02:06.116Z,1.50
2018-09-08T14:04:34.830Z,1.60
2018-09-08T14:07:03.072Z,1.53
2018-09-08T14:09:31.334Z,2.13
2018-09-08T14:11:59.585Z,1.40
2018-09-08T14:14:27.791Z,1.20
2018-09-08T14:16:56.201Z,1.93
2018-09-08T14:19:24.365Z,2.03
2018-09-08T14:21:52.509Z,2.00
2018-09-08T14:24:20.679Z,1.97
2018-09-08T14:26:49.053Z,2.30
2018-09-08T14:29:17.221Z,2.60
2018-09-08T14:31:45.378Z,2.07
2018-09-08T14:34:14.194Z,2.47
2018-09-08T14:36:42.450Z,2.27
2018-09-08T14:39:11.036Z,2.13
2018-09-08T14:41:39.700Z,2.23
2018-09-08T14:44:07.961Z,2.37
2018-09-08T14:46:36.216Z,1.77
2018-09-08T14:49:04.437Z,1.93
2018-09-08T14:51:32.551Z,2.13
2018-09-08T14:54:00.830Z,1.90
2018-09-08T14:56:29.276Z,1.73
2018-09-08T14:58:57.452Z,2.47
2018-09-08T15:01:25.883Z,2.07
2018-09-08T15:03:54.075Z,2.40
2018-09-08T15:06:22.353Z,2.33
2018-09-08T15:08:50.493Z,2.50
2018-09-08T15:11:18.961Z,1.70
2018-09-08T15:13:47.125Z,2.10
2018-09-08T15:16:15.465Z,1.80
2018-09-08T15:18:43.788Z,1.87
2018-09-08T15:21:12.220Z,1.90
2018-09-08T15:23:40.425Z,1.80
2018-09-08T15:26:08.743Z,1.70
2018-09-08T15:28:36.942Z,1.80
2018-09-08T15:31:05.120Z,1.83
2018-09-08T15:33:33.252Z,2.33
2018-09-08T15:36:01.449Z,2.30
2018-09-08T15:38:29.884Z,1.93
2018-09-08T15:40:58.772Z,2.00
2018-09-08T15:43:27.068Z,1.90
2018-09-08T15:45:55.456Z,2.60
2018-09-08T15:48:25.624Z,2.33
2018-09-08T15:50:54.053Z,2.03
2018-09-08T15:53:22.255Z,1.80
2018-09-08T15:55:51.182Z,2.30
2018-09-08T15:58:19.420Z,2.40
2018-09-08T16:00:47.556Z,2.43
2018-09-08T16:03:16.383Z,2.00
2018-09-08T16:05:44.813Z,1.83
2018-09-08T16:08:13.033Z,2.37
2018-09-08T16:10:41.669Z,1.70
2018-09-08T16:13:09.881Z,2.13
2018-09-08T16:15:38.336Z,2.23
2018-09-08T16:18:06.821Z,2.17
2018-09-08T16:20:35.191Z,2.00
2018-09-08T16:23:03.440Z,2.37
2018-09-08T16:25:32.473Z,1.73
2018-09-08T16:28:01.111Z,2.00
2018-09-08T16:30:29.280Z,2.53
2018-09-08T16:32:57.533Z,2.00
2018-09-08T16:35:25.884Z,2.20
2018-09-08T16:37:54.192Z,1.93
2018-09-08T16:40:22.339Z,2.10
2018-09-08T16:42:50.515Z,2.13
2018-09-08T16:45:18.670Z,2.20
2018-09-08T16:47:46.837Z,2.33
2018-09-08T16:50:15.128Z,2.20
2018-09-08T16:52:43.285Z,1.80
2018-09-08T16:55:11.676Z,3.00
2018-09-08T16:57:40.039Z,2.70
2018-09-08T17:00:08.450Z,2.60
2018-09-08T17:02:36.944Z,2.83
2018-09-08T17:05:05.312Z,3.03
2018-09-08T17:07:33.461Z,2.63
2018-09-08T17:10:01.654Z,2.30
2018-09-08T17:12:29.919Z,2.87
2018-09-08T17:14:58.506Z,2.70
2018-09-08T17:17:26.738Z,2.73
2018-09-08T17:19:55.904Z,2.67
2018-09-08T17:22:24.754Z,3.13
2018-09-08T17:24:52.942Z,2.30
2018-09-08T17:27:21.124Z,3.00
2018-09-08T17:29:50.025Z,2.23
2018-09-08T17:32:18.301Z,2.70
2018-09-08T17:34:46.614Z,2.87
2018-09-08T17:37:16.106Z,2.67
2018-09-08T17:39:47.009Z,2.37
2018-09-08T17:42:16.672Z,3.07
2018-09-08T17:44:45.388Z,2.53
2018-09-08T17:47:16.059Z,2.50
2018-09-08T17:49:46.203Z,2.63
2018-09-08T17:52:20.642Z,2.50
2018-09-08T17:54:49.278Z,2.27
2018-09-08T17:57:22.063Z,2.50
2018-09-08T17:59:50.668Z,3.03
2018-09-08T18:02:37.512Z,2.73
2018-09-08T18:08:09.565Z,2.80
2018-09-08T18:17:35.854Z,3.20
2018-09-08T18:25:23.617Z,2.62
2018-09-08T18:27:52.156Z,3.25
2018-09-08T18:30:21.717Z,3.15
2018-09-08T18:32:50.257Z,2.40
2018-09-08T18:35:18.871Z,2.90
2018-09-08T18:37:47.207Z,2.35
2018-09-08T18:40:22.852Z,2.20
2018-09-08T18:42:51.220Z,2.87
2018-09-08T18:45:21.257Z,2.62
2018-09-08T18:47:50.412Z,2.65
2018-09-08T18:50:18.611Z,2.75
2018-09-08T18:52:46.821Z,3.70
2018-09-08T18:55:15.040Z,2.35
2018-09-08T18:57:43.440Z,2.35
2018-09-08T19:00:11.754Z,2.98
2018-09-08T19:02:40.158Z,2.53
2018-09-08T19:05:08.475Z,2.90
2018-09-08T19:07:36.692Z,2.30
2018-09-08T19:10:06.253Z,2.70
2018-09-08T19:12:35.611Z,2.52
2018-09-08T19:15:09.490Z,2.80
2018-09-08T19:17:37.768Z,2.58
2018-09-08T19:20:11.471Z,3.50
2018-09-08T19:22:39.665Z,2.83
2018-09-08T19:25:07.928Z,2.25
2018-09-08T19:27:36.135Z,2.90
2018-09-08T19:30:04.671Z,3.60
2018-09-08T19:32:32.895Z,2.70
2018-09-08T19:35:06.511Z,2.37
2018-09-08T19:37:36.065Z,2.60
2018-09-08T19:40:08.635Z,2.60
2018-09-08T19:42:36.942Z,2.60
2018-09-08T19:45:06.786Z,2.58
2018-09-08T19:47:40.638Z,2.85
2018-09-08T19:50:08.873Z,2.58
2018-09-08T19:52:42.380Z,2.40
2018-09-08T19:55:10.750Z,2.95
2018-09-08T19:57:44.365Z,2.50
2018-09-08T20:00:12.616Z,3.08
2018-09-08T20:02:40.901Z,3.37
2018-09-08T20:05:09.089Z,2.85
2018-09-08T20:07:37.397Z,3.75
2018-09-08T20:10:06.948Z,3.65
2018-09-08T20:12:35.223Z,3.98
2018-09-08T20:15:03.399Z,3.25
2018-09-08T20:17:31.564Z,3.90
2018-09-08T20:19:59.772Z,3.20
2018-09-08T20:22:28.124Z,3.72
2018-09-08T20:24:56.615Z,4.10
2018-09-08T20:27:24.918Z,4.25
2018-09-08T20:29:53.270Z,3.60
2018-09-08T20:32:21.551Z,4.50
2018-09-08T20:34:49.756Z,4.72
2018-09-08T20:37:18.180Z,4.40
2018-09-08T20:39:46.361Z,3.98
2018-09-08T20:42:14.581Z,4.83
2018-09-08T20:44:42.899Z,3.70
2018-09-08T20:47:11.208Z,4.08
2018-09-08T20:49:39.521Z,3.80
2018-09-08T20:52:07.856Z,3.62
2018-09-08T20:54:36.218Z,3.83
2018-09-08T20:57:04.411Z,4.45
2018-09-08T20:59:32.787Z,3.70
2018-09-08T21:02:01.017Z,4.22
2018-09-08T21:04:29.276Z,3.70
2018-09-08T21:06:57.552Z,4.10
2018-09-08T21:09:25.719Z,3.87
2018-09-08T21:11:53.864Z,4.28
2018-09-08T21:14:22.045Z,3.80
2018-09-08T21:16:50.233Z,4.20
2018-09-08T21:19:18.407Z,4.55
2018-09-08T21:21:46.659Z,4.37
2018-09-08T21:24:14.822Z,4.72
2018-09-08T21:26:42.984Z,4.58
2018-09-08T21:29:11.193Z,4.30
2018-09-08T21:31:39.364Z,4.35
2018-09-08T21:34:07.567Z,3.65
2018-09-08T21:36:35.776Z,4.00
2018-09-08T21:39:04.757Z,4.30
2018-09-08T21:41:38.665Z,4.75
2018-09-08T21:44:06.883Z,4.70
2018-09-08T21:46:35.044Z,4.20
2018-09-08T21:49:03.262Z,4.50
2018-09-08T21:51:31.463Z,3.95
2018-09-08T21:53:59.639Z,4.60
2018-09-08T21:56:27.824Z,4.90
2018-09-08T21:58:56.092Z,4.12
2018-09-08T22:01:26.200Z,4.33
2018-09-08T22:03:54.961Z,4.85
2018-09-08T22:06:23.828Z,3.70
2018-09-08T22:08:52.105Z,5.55
2018-09-08T22:11:20.274Z,4.60
2018-09-08T22:13:48.462Z,5.12
2018-09-08T22:16:16.822Z,5.10
2018-09-08T22:18:45.358Z,4.55
2018-09-08T22:21:13.543Z,5.33
2018-09-08T22:23:41.784Z,4.58
2018-09-08T22:26:10.025Z,5.25
2018-09-08T22:28:38.288Z,5.55
2018-09-08T22:31:06.528Z,4.83
2018-09-08T22:33:34.818Z,4.80
2018-09-08T22:36:03.030Z,4.87
2018-09-08T22:38:31.260Z,4.78
2018-09-08T22:40:59.545Z,5.92
2018-09-08T22:43:27.820Z,5.50
2018-09-08T22:45:55.988Z,5.47
2018-09-08T22:48:24.264Z,5.45
2018-09-08T22:50:52.527Z,6.10
2018-09-08T22:53:20.704Z,6.55
2018-09-08T22:55:48.923Z,6.05
2018-09-08T22:58:17.294Z,6.53
2018-09-08T23:00:45.475Z,6.28
2018-09-08T23:03:13.648Z,6.08
2018-09-08T23:05:41.882Z,6.72
2018-09-08T23:08:10.063Z,7.17
2018-09-08T23:10:38.324Z,6.05
2018-09-08T23:13:06.508Z,6.62
2018-09-08T23:15:34.776Z,6.50
2018-09-08T23:18:02.962Z,6.92
2018-09-08T23:20:31.128Z,6.20
2018-09-08T23:22:59.300Z,6.50
2018-09-08T23:25:27.480Z,6.58
2018-09-08T23:27:55.658Z,6.60
2018-09-08T23:30:23.843Z,7.50
2018-09-08T23:32:52.044Z,7.42
2018-09-08T23:35:20.246Z,6.53
2018-09-08T23:37:48.369Z,7.15
2018-09-08T23:40:16.556Z,7.20
2018-09-08T23:42:44.812Z,7.60
2018-09-08T23:45:12.998Z,6.87
2018-09-08T23:47:41.170Z,6.92
2018-09-08T23:50:09.323Z,7.05
2018-09-08T23:52:37.620Z,8.35
2018-09-08T23:55:05.748Z,8.13
2018-09-08T23:57:33.870Z,8.10
